createdAt,value
2022-10-19T00:01:11.541Z,15.00
2022-10-19T00:03:40.127Z,15.70
2022-10-19T00:06:27.897Z,15.30
2022-10-19T00:09:15.936Z,16.10
2022-10-19T00:11:45.272Z,15.00
2022-10-19T00:14:14.677Z,16.20
2022-10-19T00:16:43.463Z,15.90
2022-10-19T00:19:16.449Z,16.10
2022-10-19T00:21:44.410Z,15.50
2022-10-19T00:24:12.362Z,15.00
2022-10-19T00:26:41.300Z,16.30
2022-10-19T00:29:10.534Z,15.50
2022-10-19T00:31:38.705Z,16.30
2022-10-19T00:34:06.848Z,15.70
2022-10-19T00:36:36.123Z,15.80
2022-10-19T00:39:04.995Z,16.40
2022-10-19T00:41:34.177Z,16.00
2022-10-19T00:44:04.322Z,16.40
2022-10-19T00:46:34.139Z,16.50
2022-10-19T00:49:13.369Z,17.80
2022-10-19T00:51:42.258Z,17.10
2022-10-19T00:54:10.432Z,17.30
2022-10-19T00:56:39.512Z,16.80
2022-10-19T00:59:08.055Z,18.80
2022-10-19T01:01:36.282Z,18.10
2022-10-19T01:04:04.899Z,18.50
2022-10-19T01:06:32.943Z,18.20
2022-10-19T01:09:01.542Z,18.70
2022-10-19T01:11:36.209Z,18.90
2022-10-19T01:14:17.274Z,19.10
2022-10-19T01:17:14.429Z,19.00
2022-10-19T01:19:48.385Z,19.20
2022-10-19T01:22:39.186Z,18.30
2022-10-19T01:25:20.581Z,18.10
2022-10-19T01:28:04.410Z,18.60
2022-10-19T01:30:55.111Z,17.90
2022-10-19T01:33:34.032Z,18.30
2022-10-19T01:36:01.945Z,18.20
2022-10-19T01:38:35.611Z,16.80
2022-10-19T01:41:12.360Z,17.50
2022-10-19T01:43:43.214Z,17.10
2022-10-19T01:46:17.944Z,17.10
2022-10-19T01:48:51.032Z,17.00
2022-10-19T01:51:21.356Z,16.80
2022-10-19T01:53:51.495Z,16.40
2022-10-19T01:56:21.900Z,16.20
2022-10-19T01:58:50.539Z,17.10
2022-10-19T02:01:19.988Z,16.20
2022-10-19T02:03:48.366Z,16.50
2022-10-19T02:06:16.193Z,15.90
2022-10-19T02:08:46.465Z,15.50
2022-10-19T02:11:16.366Z,16.90
2022-10-19T02:13:45.258Z,16.70
2022-10-19T02:16:26.032Z,16.20
2022-10-19T02:18:55.779Z,16.40
2022-10-19T02:21:23.754Z,16.30
2022-10-19T02:23:54.081Z,16.30
2022-10-19T02:26:23.125Z,16.40
2022-10-19T02:28:51.176Z,16.60
2022-10-19T02:31:18.779Z,16.80
2022-10-19T02:33:46.619Z,15.80
2022-10-19T02:36:14.347Z,15.70
2022-10-19T02:38:42.555Z,16.60
2022-10-19T02:41:29.221Z,16.30
2022-10-19T02:44:00.005Z,17.40
2022-10-19T02:46:37.140Z,16.50
2022-10-19T02:49:06.357Z,16.00
2022-10-19T02:51:35.233Z,15.10
2022-10-19T02:54:05.373Z,14.80
2022-10-19T02:56:33.993Z,15.00
2022-10-19T02:59:01.888Z,14.90
2022-10-19T03:01:30.351Z,15.40
2022-10-19T03:03:57.962Z,13.90
2022-10-19T03:06:25.624Z,14.50
2022-10-19T03:08:53.178Z,14.60
2022-10-19T03:11:21.394Z,15.00
2022-10-19T03:13:51.901Z,14.90
2022-10-19T03:16:19.994Z,15.20
2022-10-19T03:18:49.379Z,14.50
2022-10-19T03:21:17.854Z,14.10
2022-10-19T03:23:46.026Z,15.20
2022-10-19T03:26:16.250Z,14.60
2022-10-19T03:28:43.893Z,14.70
2022-10-19T03:31:11.673Z,14.30
2022-10-19T03:33:39.437Z,14.30
2022-10-19T03:36:23.975Z,13.80
2022-10-19T03:38:59.657Z,12.30
2022-10-19T03:41:29.045Z,12.60
2022-10-19T03:43:57.447Z,12.50
2022-10-19T03:46:26.211Z,12.90
2022-10-19T03:48:54.487Z,13.00
2022-10-19T03:51:26.805Z,12.20
2022-10-19T03:53:55.340Z,12.10
2022-10-19T03:56:24.535Z,12.70
2022-10-19T03:58:53.704Z,12.80
2022-10-19T04:01:23.344Z,11.80
2022-10-19T04:03:55.288Z,11.00
2022-10-19T04:06:25.423Z,11.60
2022-10-19T04:08:53.284Z,11.10
2022-10-19T04:11:23.024Z,11.50
2022-10-19T04:13:52.069Z,11.30
2022-10-19T04:16:21.062Z,11.40
2022-10-19T04:18:53.372Z,10.90
2022-10-19T04:21:26.116Z,11.10
2022-10-19T04:23:58.303Z,11.00
2022-10-19T04:26:26.885Z,10.60
2022-10-19T04:28:54.491Z,10.70
2022-10-19T04:31:22.310Z,10.70
2022-10-19T04:33:50.191Z,10.10
2022-10-19T04:36:18.250Z,9.00
2022-10-19T04:38:46.221Z,9.60
2022-10-19T04:41:15.624Z,8.90
2022-10-19T04:43:45.430Z,8.60
2022-10-19T04:46:15.451Z,8.60
2022-10-19T04:48:43.475Z,8.20
2022-10-19T04:51:11.439Z,8.20
2022-10-19T04:53:39.906Z,7.90
2022-10-19T04:56:09.095Z,7.50
2022-10-19T04:58:36.650Z,8.00
2022-10-19T05:01:08.792Z,8.60
2022-10-19T05:03:36.667Z,7.20
2022-10-19T05:06:05.252Z,7.20
2022-10-19T05:08:33.636Z,6.50
2022-10-19T05:11:02.523Z,6.10
2022-10-19T05:13:31.278Z,6.70
2022-10-19T05:16:00.399Z,7.40
2022-10-19T05:18:28.414Z,6.60
2022-10-19T05:21:02.980Z,7.40
2022-10-19T05:26:02.500Z,5.60
2022-10-19T05:28:31.110Z,5.40
2022-10-19T05:31:12.678Z,5.40
2022-10-19T05:33:41.049Z,5.20
2022-10-19T05:36:23.050Z,5.00
2022-10-19T05:38:52.668Z,5.30
2022-10-19T05:41:21.985Z,5.00
2022-10-19T05:43:57.705Z,5.20
2022-10-19T05:46:26.287Z,4.80
2022-10-19T05:48:55.590Z,4.80
2022-10-19T05:51:24.071Z,5.00
2022-10-19T05:53:53.041Z,5.10
2022-10-19T05:56:22.349Z,4.00
2022-10-19T05:58:50.218Z,4.80
2022-10-19T06:01:21.475Z,4.30
2022-10-19T06:03:51.809Z,4.50
2022-10-19T06:06:20.071Z,4.60
2022-10-19T06:08:48.452Z,4.20
2022-10-19T06:11:18.126Z,3.90
2022-10-19T06:13:47.048Z,4.80
2022-10-19T06:16:16.450Z,4.40
2022-10-19T06:18:44.626Z,4.30
2022-10-19T06:21:13.576Z,3.90
2022-10-19T06:26:14.263Z,3.80
2022-10-19T06:28:43.234Z,3.90
2022-10-19T06:31:11.186Z,4.20
2022-10-19T06:33:39.576Z,3.80
2022-10-19T06:36:08.062Z,4.00
2022-10-19T06:38:36.180Z,3.60
2022-10-19T06:41:04.233Z,3.50
2022-10-19T06:43:32.079Z,3.60
2022-10-19T06:46:03.448Z,3.70
2022-10-19T06:48:31.920Z,3.70
2022-10-19T06:51:00.613Z,3.70
2022-10-19T06:53:29.280Z,4.10
2022-10-19T06:55:59.000Z,4.10
2022-10-19T06:58:26.788Z,4.30
2022-10-19T07:00:57.146Z,3.80
2022-10-19T07:03:25.363Z,3.80
2022-10-19T07:05:57.530Z,3.80
2022-10-19T07:08:26.651Z,3.90
2022-10-19T07:10:56.538Z,3.60
2022-10-19T07:13:24.403Z,3.50
2022-10-19T07:15:58.934Z,3.70
2022-10-19T07:18:27.519Z,4.00
2022-10-19T07:20:59.791Z,3.90
2022-10-19T07:23:28.885Z,3.80
2022-10-19T07:26:01.866Z,5.80
2022-10-19T07:28:30.238Z,4.50
2022-10-19T07:30:58.005Z,3.70
2022-10-19T07:33:25.922Z,4.10
2022-10-19T07:35:58.752Z,4.00
2022-10-19T07:38:26.624Z,3.40
2022-10-19T07:41:15.689Z,3.70
2022-10-19T07:43:44.877Z,3.90
2022-10-19T07:46:17.557Z,3.70
2022-10-19T07:48:46.345Z,3.90
2022-10-19T07:51:18.149Z,4.30
2022-10-19T07:53:46.796Z,3.70
2022-10-19T07:56:16.189Z,4.00
2022-10-19T07:58:44.753Z,5.50
2022-10-19T08:01:14.283Z,5.50
2022-10-19T08:04:43.362Z,5.10
2022-10-19T08:06:31.507Z,5.40
2022-10-19T08:08:59.588Z,5.00
2022-10-19T08:11:32.785Z,5.30
2022-10-19T08:14:02.869Z,4.50
2022-10-19T08:16:37.542Z,3.40
2022-10-19T08:19:07.215Z,2.80
2022-10-19T08:21:35.452Z,3.90
2022-10-19T08:46:19.880Z,2.70
2022-10-19T08:48:47.551Z,2.40
2022-10-19T08:51:15.269Z,2.10
2022-10-19T08:53:42.982Z,2.10
2022-10-19T08:56:38.936Z,2.40
2022-10-19T09:01:37.551Z,2.10
2022-10-19T09:04:14.805Z,2.20
2022-10-19T09:06:45.630Z,2.20
2022-10-19T09:09:14.205Z,1.90
2022-10-19T09:11:44.657Z,2.10
2022-10-19T09:14:19.425Z,2.40
2022-10-19T09:30:24.781Z,1.70
2022-10-19T09:32:59.815Z,1.60
2022-10-19T09:35:29.221Z,2.30
2022-10-19T09:37:57.102Z,2.00
2022-10-19T09:40:27.404Z,1.10
2022-10-19T09:42:59.285Z,1.50
2022-10-19T09:45:47.596Z,1.30
2022-10-19T09:48:23.670Z,1.40
2022-10-19T09:50:54.710Z,1.40
2022-10-19T09:53:22.786Z,1.30
2022-10-19T09:55:58.694Z,1.40
2022-10-19T09:58:30.505Z,1.30
2022-10-19T10:01:02.054Z,1.50
2022-10-19T10:03:30.425Z,1.50
2022-10-19T10:06:08.435Z,1.40
2022-10-19T10:08:39.319Z,1.70
2022-10-19T10:11:13.287Z,0.90
2022-10-19T10:13:42.777Z,1.20
2022-10-19T10:16:13.737Z,1.30
2022-10-19T10:18:51.425Z,1.10
2022-10-19T10:21:27.032Z,0.90
2022-10-19T10:24:05.591Z,1.10
2022-10-19T10:26:38.238Z,1.00
2022-10-19T10:29:16.949Z,1.20
2022-10-19T10:42:56.518Z,1.30
2022-10-19T10:45:26.421Z,1.20
2022-10-19T10:47:54.295Z,1.30
2022-10-19T10:50:23.981Z,0.90
2022-10-19T10:52:57.395Z,1.00
2022-10-19T10:55:26.897Z,1.30
2022-10-19T10:57:59.171Z,1.40
2022-10-19T11:00:28.372Z,1.20
2022-10-19T11:03:05.244Z,1.30
2022-10-19T11:05:41.209Z,1.10
2022-10-19T11:08:12.033Z,1.60
2022-10-19T11:10:43.616Z,2.60
2022-10-19T11:13:26.243Z,1.50
2022-10-19T11:15:55.600Z,1.10
2022-10-19T11:18:32.376Z,1.70
2022-10-19T11:23:35.095Z,1.60
2022-10-19T11:26:26.901Z,1.20
2022-10-19T11:29:13.454Z,1.20
2022-10-19T11:31:41.649Z,2.00
2022-10-19T11:34:32.529Z,1.90
2022-10-19T11:37:02.979Z,1.60
2022-10-19T11:39:35.789Z,2.10
2022-10-19T11:42:26.595Z,2.20
2022-10-19T11:45:10.034Z,2.80
2022-10-19T11:47:53.381Z,1.90
2022-10-19T11:50:32.018Z,1.60
2022-10-19T11:53:20.828Z,1.30
2022-10-19T11:55:51.551Z,1.60
2022-10-19T11:58:25.094Z,1.60
2022-10-19T12:00:52.827Z,1.70
2022-10-19T12:03:39.533Z,1.50
2022-10-19T12:06:19.388Z,1.60
2022-10-19T12:09:06.033Z,1.40
2022-10-19T12:11:42.965Z,1.60
2022-10-19T12:14:13.723Z,1.70
2022-10-19T12:16:46.031Z,2.50
2022-10-19T12:19:19.979Z,1.60
2022-10-19T12:21:48.152Z,1.60
2022-10-19T12:24:21.445Z,1.90
2022-10-19T12:26:50.527Z,1.40
2022-10-19T12:29:21.787Z,1.90
2022-10-19T12:31:50.162Z,2.20
2022-10-19T12:34:24.617Z,2.40
2022-10-19T12:36:59.083Z,2.10
2022-10-19T12:39:26.853Z,2.20
2022-10-19T12:42:13.444Z,2.30
2022-10-19T12:45:03.465Z,1.40
2022-10-19T12:47:32.365Z,2.80
2022-10-19T12:50:04.110Z,2.30
2022-10-19T12:52:40.137Z,1.90
2022-10-19T12:55:11.340Z,1.90
2022-10-19T12:57:39.775Z,1.80
2022-10-19T13:00:21.737Z,1.20
2022-10-19T13:02:59.075Z,1.40
2022-10-19T13:05:28.572Z,1.50
2022-10-19T13:07:56.957Z,1.50
2022-10-19T13:10:25.799Z,2.00
2022-10-19T13:12:54.548Z,1.20
2022-10-19T13:15:37.702Z,1.80
2022-10-19T13:18:11.860Z,2.10
2022-10-19T13:23:13.849Z,2.90
2022-10-19T13:25:42.855Z,2.50
2022-10-19T13:28:11.044Z,2.40
2022-10-19T13:31:03.432Z,1.60
2022-10-19T13:33:42.074Z,2.80
2022-10-19T13:36:10.954Z,2.40
2022-10-19T13:38:51.212Z,2.60
2022-10-19T13:41:48.578Z,3.10
2022-10-19T13:44:17.553Z,1.90
2022-10-19T13:46:45.339Z,2.60
2022-10-19T13:49:37.261Z,2.50
2022-10-19T13:52:07.995Z,2.00
2022-10-19T13:54:36.168Z,2.00
2022-10-19T13:57:22.468Z,2.20
2022-10-19T13:59:57.412Z,2.40
2022-10-19T14:02:48.356Z,2.20
2022-10-19T14:05:16.151Z,2.50
2022-10-19T14:08:07.210Z,2.50
2022-10-19T14:10:56.273Z,2.40
2022-10-19T14:13:25.441Z,2.30
2022-10-19T14:15:54.449Z,2.40
2022-10-19T14:18:27.881Z,1.60
2022-10-19T14:20:57.335Z,1.90
2022-10-19T14:23:28.377Z,1.90
2022-10-19T14:26:01.161Z,1.40
2022-10-19T14:28:29.438Z,1.70
2022-10-19T14:31:01.600Z,1.70
2022-10-19T14:33:32.345Z,1.80
2022-10-19T14:36:00.102Z,1.60
2022-10-19T14:38:28.064Z,1.30
2022-10-19T14:40:56.688Z,1.50
2022-10-19T14:43:29.430Z,1.30
2022-10-19T14:46:04.761Z,1.80
2022-10-19T14:48:33.667Z,1.80
2022-10-19T14:51:02.871Z,1.60
2022-10-19T14:53:41.187Z,2.00
2022-10-19T14:56:19.968Z,1.90
2022-10-19T14:58:51.977Z,1.80
2022-10-19T15:01:22.004Z,1.90
2022-10-19T15:03:53.009Z,2.40
2022-10-19T15:06:25.461Z,2.10
2022-10-19T15:09:04.309Z,1.80
2022-10-19T15:11:39.110Z,1.70
2022-10-19T15:14:14.113Z,1.50
2022-10-19T15:16:42.560Z,1.70
2022-10-19T15:19:19.632Z,2.10
2022-10-19T15:21:47.841Z,1.80
2022-10-19T15:24:23.091Z,1.50
2022-10-19T15:27:01.802Z,1.90
2022-10-19T15:29:37.108Z,2.20
2022-10-19T15:32:16.022Z,2.00
2022-10-19T15:34:47.590Z,2.30
2022-10-19T15:37:20.443Z,1.90
2022-10-19T15:39:48.541Z,2.20
2022-10-19T15:42:35.086Z,2.10
2022-10-19T15:45:04.542Z,2.30
2022-10-19T15:47:32.438Z,2.10
2022-10-19T15:50:01.985Z,2.00
2022-10-19T15:52:32.134Z,2.60
2022-10-19T15:55:00.691Z,2.30
2022-10-19T15:57:30.586Z,2.00
2022-10-19T15:59:59.630Z,2.10
2022-10-19T16:02:27.695Z,1.80
2022-10-19T16:04:55.485Z,2.00
2022-10-19T16:07:35.754Z,1.70
2022-10-19T16:10:04.287Z,1.60
2022-10-19T16:12:32.165Z,2.10
2022-10-19T16:15:00.030Z,2.00
2022-10-19T16:17:27.968Z,1.90
2022-10-19T16:19:55.665Z,2.10
2022-10-19T16:22:23.327Z,2.20
2022-10-19T16:24:51.093Z,2.60
2022-10-19T16:27:18.951Z,2.70
2022-10-19T16:29:46.675Z,2.80
2022-10-19T16:32:14.580Z,3.00
2022-10-19T16:34:42.657Z,3.40
2022-10-19T16:37:10.421Z,3.70
2022-10-19T16:39:38.178Z,2.60
2022-10-19T16:42:06.201Z,4.00
2022-10-19T16:44:34.080Z,4.60
2022-10-19T16:47:01.867Z,7.50
2022-10-19T16:49:29.749Z,8.50
2022-10-19T16:51:57.917Z,6.70
2022-10-19T16:54:27.002Z,9.20
2022-10-19T16:56:55.851Z,11.50
2022-10-19T16:59:23.784Z,13.40
2022-10-19T17:01:51.670Z,16.60
2022-10-19T17:04:19.709Z,16.30
2022-10-19T17:06:47.676Z,11.40
2022-10-19T17:09:41.275Z,9.10
2022-10-19T17:12:04.017Z,6.40
2022-10-19T17:14:31.755Z,5.00
2022-10-19T17:16:59.632Z,5.90
2022-10-19T17:19:27.494Z,5.70
2022-10-19T17:21:57.294Z,5.20
2022-10-19T17:24:28.134Z,5.20
2022-10-19T17:26:56.112Z,8.60
2022-10-19T17:29:23.875Z,6.50
2022-10-19T17:31:51.837Z,4.80
2022-10-19T17:34:19.819Z,4.00
2022-10-19T17:36:48.416Z,3.50
2022-10-19T17:39:18.272Z,3.60
2022-10-19T17:41:46.990Z,3.70
2022-10-19T17:44:15.192Z,3.90
2022-10-19T17:46:43.336Z,3.70
2022-10-19T17:49:11.609Z,3.70
2022-10-19T17:51:40.089Z,3.80
2022-10-19T17:54:14.860Z,6.70
2022-10-19T17:56:45.350Z,6.90
2022-10-19T17:59:13.464Z,7.30
2022-10-19T18:01:41.700Z,12.00
2022-10-19T18:04:10.166Z,15.90
2022-10-19T18:06:38.650Z,15.80
2022-10-19T18:09:07.691Z,20.90
2022-10-19T18:11:37.563Z,24.50
2022-10-19T18:14:08.519Z,19.50
2022-10-19T18:16:42.452Z,22.90
2022-10-19T18:19:12.581Z,19.40
2022-10-19T18:21:42.586Z,14.80
2022-10-19T18:24:19.702Z,13.20
2022-10-19T18:26:49.731Z,11.90
2022-10-19T18:29:22.074Z,9.70
2022-10-19T18:31:52.828Z,8.70
2022-10-19T18:34:24.492Z,6.40
2022-10-19T18:36:54.495Z,7.00
2022-10-19T18:39:24.899Z,6.30
2022-10-19T18:41:55.104Z,5.30
2022-10-19T18:44:27.209Z,5.90
2022-10-19T18:46:57.407Z,5.40
2022-10-19T18:49:27.521Z,4.30
2022-10-19T18:51:57.454Z,4.30
2022-10-19T18:54:28.294Z,3.80
2022-10-19T18:56:57.263Z,4.70
2022-10-19T19:01:58.855Z,4.80
2022-10-19T19:04:27.320Z,4.70
2022-10-19T19:06:56.399Z,5.30
2022-10-19T19:09:24.482Z,4.40
2022-10-19T19:11:54.486Z,4.90
2022-10-19T19:14:22.670Z,4.30
2022-10-19T19:16:52.154Z,5.10
2022-10-19T19:19:21.171Z,5.60
2022-10-19T19:21:53.932Z,6.00
2022-10-19T19:24:22.935Z,6.40
2022-10-19T19:26:54.708Z,6.60
2022-10-19T19:29:25.979Z,6.00
2022-10-19T19:31:55.353Z,6.50
2022-10-19T19:34:25.633Z,5.50
2022-10-19T19:36:54.857Z,5.80
2022-10-19T19:39:24.768Z,5.00
2022-10-19T19:41:54.696Z,4.60
2022-10-19T19:44:24.069Z,4.40
2022-10-19T19:46:52.267Z,4.10
2022-10-19T19:49:21.666Z,6.50
2022-10-19T19:51:49.833Z,5.80
2022-10-19T19:54:18.938Z,5.70
2022-10-19T19:56:50.900Z,4.60
2022-10-19T19:59:19.375Z,4.60
2022-10-19T20:01:47.253Z,4.30
2022-10-19T20:04:15.310Z,4.60
2022-10-19T20:06:44.815Z,4.50
2022-10-19T20:09:12.988Z,3.80
2022-10-19T20:11:42.712Z,4.20
2022-10-19T20:14:12.156Z,4.00
2022-10-19T20:16:41.810Z,4.10
2022-10-19T20:19:12.239Z,4.50
2022-10-19T20:21:42.179Z,4.40
2022-10-19T20:24:11.504Z,4.60
2022-10-19T20:26:39.846Z,4.60
2022-10-19T20:29:07.925Z,5.20
2022-10-19T20:31:40.012Z,5.30
2022-10-19T20:34:10.791Z,5.20
2022-10-19T20:36:40.097Z,6.00
2022-10-19T20:39:08.174Z,8.20
2022-10-19T20:41:36.963Z,8.30
2022-10-19T20:44:07.815Z,8.20
2022-10-19T20:46:37.313Z,7.80
2022-10-19T20:49:05.466Z,8.00
2022-10-19T20:51:37.238Z,8.00
2022-10-19T20:54:09.369Z,8.10
2022-10-19T20:56:40.401Z,8.10
2022-10-19T20:59:14.444Z,7.70
2022-10-19T21:01:44.557Z,8.90
2022-10-19T21:04:14.375Z,8.90
2022-10-19T21:06:45.643Z,9.10
2022-10-19T21:09:15.874Z,9.80
2022-10-19T21:11:45.035Z,8.50
2022-10-19T21:14:25.271Z,8.80
2022-10-19T21:16:59.736Z,9.30
2022-10-19T21:19:29.525Z,10.20
2022-10-19T21:22:02.380Z,21.00
2022-10-19T21:24:32.989Z,22.40
2022-10-19T21:27:02.037Z,20.60
2022-10-19T21:29:30.309Z,21.90
2022-10-19T21:31:58.482Z,19.20
2022-10-19T21:34:27.676Z,21.00
2022-10-19T21:36:56.260Z,19.50
2022-10-19T21:39:24.329Z,15.90
2022-10-19T21:41:52.312Z,14.20
2022-10-19T21:44:23.340Z,12.10
2022-10-19T21:46:51.009Z,11.80
2022-10-19T21:49:18.872Z,12.70
2022-10-19T21:51:46.829Z,12.30
2022-10-19T21:54:16.039Z,13.00
2022-10-19T21:56:44.210Z,14.10
2022-10-19T21:59:12.679Z,13.70
2022-10-19T22:01:41.783Z,13.40
2022-10-19T22:04:13.860Z,12.20
2022-10-19T22:06:42.700Z,22.20
2022-10-19T22:09:12.394Z,34.90
2022-10-19T22:11:40.213Z,27.90
2022-10-19T22:14:07.982Z,28.10
2022-10-19T22:16:37.047Z,27.90
2022-10-19T22:19:05.554Z,30.50
2022-10-19T22:21:34.744Z,31.40
2022-10-19T22:24:04.352Z,35.70
2022-10-19T22:26:37.366Z,34.30
2022-10-19T22:29:06.124Z,31.70
2022-10-19T22:31:34.405Z,28.50
2022-10-19T22:34:06.902Z,26.90
2022-10-19T22:36:34.828Z,32.50
2022-10-19T22:39:02.971Z,27.90
2022-10-19T22:41:30.550Z,30.00
2022-10-19T22:43:58.259Z,29.10
2022-10-19T22:46:26.101Z,29.50
2022-10-19T22:48:53.784Z,29.20
2022-10-19T22:51:21.594Z,26.30
2022-10-19T22:53:49.393Z,23.80
2022-10-19T22:56:17.362Z,20.90
2022-10-19T22:58:45.029Z,21.60
2022-10-19T23:01:14.334Z,22.00
2022-10-19T23:03:42.598Z,20.10
2022-10-19T23:06:12.204Z,18.90
2022-10-19T23:08:40.235Z,17.20
2022-10-19T23:11:07.996Z,16.00
2022-10-19T23:13:36.013Z,15.70
2022-10-19T23:16:03.981Z,18.60
2022-10-19T23:18:32.235Z,19.60
2022-10-19T23:21:02.064Z,18.70
2022-10-19T23:23:31.542Z,20.70
2022-10-19T23:26:02.370Z,18.60
2022-10-19T23:28:30.987Z,18.90
2022-10-19T23:30:59.570Z,18.20
2022-10-19T23:33:27.436Z,16.60
2022-10-19T23:35:55.201Z,17.00
2022-10-19T23:38:22.964Z,17.30
2022-10-19T23:40:51.137Z,16.10
2022-10-19T23:43:18.820Z,15.70
2022-10-19T23:45:46.663Z,15.00
2022-10-19T23:48:14.427Z,13.80
2022-10-19T23:50:41.996Z,14.00
2022-10-19T23:53:09.566Z,13.50
2022-10-19T23:55:37.317Z,11.40
2022-10-19T23:58:05.072Z,10.80
